createdAt,value
2023-01-13T00:01:26.763Z,57.05
2023-01-13T00:03:53.815Z,57.14
2023-01-13T00:06:25.914Z,56.99
2023-01-13T00:08:53.759Z,57.08
2023-01-13T00:11:21.521Z,57.37
2023-01-13T00:13:48.469Z,57.21
2023-01-13T00:16:17.871Z,57.35
2023-01-13T00:18:46.006Z,57.46
2023-01-13T00:21:19.946Z,57.28
2023-01-13T00:23:47.471Z,57.20
2023-01-13T00:26:18.806Z,57.45
2023-01-13T00:28:46.006Z,57.17
2023-01-13T00:31:19.370Z,57.32
2023-01-13T00:33:48.914Z,57.31
2023-01-13T00:36:19.023Z,57.42
2023-01-13T00:38:45.973Z,57.30
2023-01-13T00:41:15.737Z,57.31
2023-01-13T00:43:43.234Z,57.41
2023-01-13T00:46:12.856Z,57.35
2023-01-13T00:48:40.164Z,57.44
2023-01-13T00:51:17.622Z,57.17
2023-01-13T00:53:48.678Z,57.37
2023-01-13T00:56:19.954Z,57.38
2023-01-13T00:58:49.203Z,57.54
2023-01-13T01:01:22.861Z,57.29
2023-01-13T01:03:52.347Z,57.36
2023-01-13T01:06:23.272Z,57.30
2023-01-13T01:08:51.387Z,57.55
2023-01-13T01:11:26.061Z,57.53
2023-01-13T01:13:56.522Z,57.39
2023-01-13T01:16:25.546Z,57.50
2023-01-13T01:18:54.815Z,57.45
2023-01-13T01:21:24.805Z,57.68
2023-01-13T01:23:52.408Z,57.48
2023-01-13T01:26:23.268Z,57.55
2023-01-13T01:28:50.346Z,57.66
2023-01-13T01:31:26.494Z,57.53
2023-01-13T01:33:54.788Z,57.53
2023-01-13T01:36:23.877Z,57.59
2023-01-13T01:38:50.824Z,57.63
2023-01-13T01:41:22.342Z,57.49
2023-01-13T01:44:07.204Z,57.25
2023-01-13T01:46:43.928Z,57.30
2023-01-13T01:49:33.775Z,57.54
2023-01-13T01:52:07.303Z,57.40
2023-01-13T01:55:05.353Z,57.37
2023-01-13T01:57:52.430Z,57.27
2023-01-13T02:00:19.609Z,57.22
2023-01-13T02:02:50.161Z,57.02
2023-01-13T02:05:18.101Z,57.08
2023-01-13T02:07:48.412Z,56.95
2023-01-13T02:10:19.822Z,56.93
2023-01-13T02:12:48.589Z,56.86
2023-01-13T02:15:23.847Z,56.82
2023-01-13T02:18:17.178Z,56.80
2023-01-13T02:21:28.474Z,56.88
2023-01-13T02:24:36.916Z,56.74
2023-01-13T02:27:36.819Z,56.74
2023-01-13T02:30:53.448Z,56.41
2023-01-13T02:33:29.236Z,56.44
2023-01-13T02:36:26.193Z,56.17
2023-01-13T02:39:01.636Z,56.41
2023-01-13T02:42:03.879Z,55.96
2023-01-13T02:44:52.235Z,55.87
2023-01-13T02:47:26.287Z,56.03
2023-01-13T02:50:19.586Z,55.83
2023-01-13T02:53:14.806Z,55.60
2023-01-13T02:55:47.580Z,55.48
2023-01-13T02:58:21.440Z,55.06
2023-01-13T03:00:50.639Z,54.98
2023-01-13T03:03:17.582Z,55.22
2023-01-13T03:05:46.941Z,55.29
2023-01-13T03:08:43.443Z,54.79
2023-01-13T03:11:13.121Z,55.07
2023-01-13T03:14:04.229Z,54.96
2023-01-13T03:17:13.641Z,54.81
2023-01-13T03:20:15.691Z,54.56
2023-01-13T03:23:11.136Z,54.14
2023-01-13T03:25:56.630Z,53.96
2023-01-13T03:28:31.851Z,54.13
2023-01-13T03:31:08.633Z,53.82
2023-01-13T03:33:45.690Z,53.70
2023-01-13T03:36:16.786Z,53.55
2023-01-13T03:38:59.211Z,54.03
2023-01-13T03:41:33.916Z,53.71
2023-01-13T03:44:22.975Z,53.90
2023-01-13T03:47:04.916Z,53.63
2023-01-13T03:49:48.325Z,53.79
2023-01-13T03:52:23.918Z,53.64
2023-01-13T03:55:13.989Z,53.65
2023-01-13T03:57:59.082Z,53.61
2023-01-13T04:00:37.609Z,53.73
2023-01-13T04:03:11.151Z,53.72
2023-01-13T04:05:43.008Z,53.85
2023-01-13T04:08:24.525Z,53.67
2023-01-13T04:11:06.617Z,53.86
2023-01-13T04:13:39.361Z,53.66
2023-01-13T04:16:08.727Z,53.60
2023-01-13T04:18:38.553Z,53.30
2023-01-13T04:21:06.596Z,53.47
2023-01-13T04:23:33.961Z,53.59
2023-01-13T04:26:01.011Z,53.73
2023-01-13T04:28:27.895Z,52.93
2023-01-13T04:30:54.844Z,53.08
2023-01-13T04:33:21.775Z,52.86
2023-01-13T04:35:48.861Z,53.30
2023-01-13T04:38:19.583Z,53.47
2023-01-13T04:40:46.600Z,53.52
2023-01-13T04:43:15.558Z,53.75
2023-01-13T04:45:43.500Z,53.67
2023-01-13T04:48:10.753Z,53.83
2023-01-13T04:50:37.736Z,53.88
2023-01-13T04:53:04.683Z,53.85
2023-01-13T04:55:32.076Z,53.81
2023-01-13T04:58:08.685Z,53.89
2023-01-13T05:00:36.418Z,54.04
2023-01-13T05:03:03.910Z,54.08
2023-01-13T05:05:31.567Z,53.79
2023-01-13T05:07:58.458Z,53.98
2023-01-13T05:10:25.797Z,53.90
2023-01-13T05:13:11.076Z,54.11
2023-01-13T05:15:59.983Z,53.71
2023-01-13T05:18:29.363Z,54.26
2023-01-13T05:20:56.344Z,53.99
2023-01-13T05:23:41.430Z,53.97
2023-01-13T05:26:08.452Z,53.96
2023-01-13T05:28:35.647Z,54.03
2023-01-13T05:31:02.717Z,54.06
2023-01-13T05:33:29.673Z,54.04
2023-01-13T05:35:56.548Z,54.04
2023-01-13T05:38:23.456Z,53.91
2023-01-13T05:41:08.651Z,54.07
2023-01-13T05:43:35.634Z,54.15
2023-01-13T05:46:08.962Z,54.07
2023-01-13T05:48:42.413Z,54.08
2023-01-13T05:51:12.059Z,53.91
2023-01-13T05:53:40.967Z,54.27
2023-01-13T05:56:11.384Z,54.15
2023-01-13T05:58:38.657Z,54.17
2023-01-13T06:01:08.834Z,54.10
2023-01-13T06:03:36.749Z,54.22
2023-01-13T06:06:04.535Z,54.03
2023-01-13T06:08:32.502Z,54.19
2023-01-13T06:10:59.434Z,54.32
2023-01-13T06:13:26.762Z,54.34
2023-01-13T06:15:58.472Z,54.12
2023-01-13T06:18:26.545Z,54.30
2023-01-13T06:20:53.613Z,54.19
2023-01-13T06:23:20.646Z,54.07
2023-01-13T06:26:10.158Z,54.04
2023-01-13T06:28:37.201Z,54.16
2023-01-13T06:31:07.705Z,54.12
2023-01-13T06:33:46.043Z,54.18
2023-01-13T06:36:18.946Z,54.09
2023-01-13T06:38:50.651Z,54.08
2023-01-13T06:41:38.772Z,54.08
2023-01-13T06:44:06.014Z,54.04
2023-01-13T06:46:33.119Z,53.97
2023-01-13T06:49:00.023Z,54.13
2023-01-13T06:51:26.951Z,54.14
2023-01-13T06:53:53.837Z,53.88
2023-01-13T06:56:20.747Z,53.96
2023-01-13T06:58:47.664Z,54.03
2023-01-13T07:01:14.833Z,53.92
2023-01-13T07:03:41.743Z,54.11
2023-01-13T07:06:08.650Z,53.94
2023-01-13T07:08:35.513Z,54.11
2023-01-13T07:11:03.035Z,54.05
2023-01-13T07:13:48.531Z,53.99
2023-01-13T07:16:15.481Z,54.16
2023-01-13T07:18:42.362Z,54.16
2023-01-13T07:21:13.241Z,53.99
2023-01-13T07:23:41.739Z,54.26
2023-01-13T07:26:10.318Z,54.43
2023-01-13T07:28:38.139Z,54.05
2023-01-13T07:31:12.229Z,54.09
2023-01-13T07:33:39.173Z,54.03
2023-01-13T07:36:06.858Z,54.17
2023-01-13T07:38:34.562Z,54.23
2023-01-13T07:41:20.715Z,54.09
2023-01-13T07:43:47.902Z,54.11
2023-01-13T07:46:15.245Z,54.07
2023-01-13T07:48:42.332Z,53.80
2023-01-13T07:51:11.624Z,54.09
2023-01-13T07:53:38.879Z,54.25
2023-01-13T07:56:07.291Z,54.08
2023-01-13T07:58:36.693Z,54.20
2023-01-13T08:01:12.399Z,53.95
2023-01-13T08:03:40.763Z,54.00
2023-01-13T08:06:08.577Z,54.39
2023-01-13T08:08:35.582Z,54.38
2023-01-13T08:11:05.908Z,54.32
2023-01-13T08:13:33.269Z,54.20
2023-01-13T08:16:10.227Z,54.43
2023-01-13T08:18:38.276Z,54.36
2023-01-13T08:21:14.142Z,54.54
2023-01-13T08:23:43.343Z,54.61
2023-01-13T08:26:14.698Z,54.36
2023-01-13T08:28:41.968Z,54.28
2023-01-13T08:31:13.652Z,54.47
2023-01-13T08:33:41.072Z,54.37
2023-01-13T08:36:12.181Z,54.38
2023-01-13T08:38:40.211Z,54.22
2023-01-13T08:41:36.663Z,54.51
2023-01-13T08:44:03.884Z,53.93
2023-01-13T08:46:30.884Z,54.06
2023-01-13T08:48:57.965Z,53.79
2023-01-13T08:51:24.835Z,53.67
2023-01-13T08:53:51.717Z,53.42
2023-01-13T08:56:18.597Z,53.26
2023-01-13T08:58:45.628Z,52.95
2023-01-13T09:01:18.563Z,53.01
2023-01-13T09:03:45.515Z,52.55
2023-01-13T09:06:12.391Z,52.74
2023-01-13T09:08:39.404Z,51.98
2023-01-13T09:11:26.580Z,51.49
2023-01-13T09:13:53.497Z,51.97
2023-01-13T09:16:20.484Z,51.61
2023-01-13T09:18:47.377Z,52.19
2023-01-13T09:21:19.644Z,51.56
2023-01-13T09:23:46.629Z,51.70
2023-01-13T09:26:20.198Z,51.41
2023-01-13T09:28:47.368Z,51.23
2023-01-13T09:31:14.521Z,51.48
2023-01-13T09:33:59.922Z,51.49
2023-01-13T09:36:26.823Z,51.32
2023-01-13T09:38:53.911Z,51.85
2023-01-13T09:41:43.271Z,51.80
2023-01-13T09:44:44.334Z,51.90
2023-01-13T09:47:35.912Z,51.97
2023-01-13T09:50:14.499Z,52.60
2023-01-13T09:52:43.140Z,52.76
2023-01-13T09:55:31.259Z,53.10
2023-01-13T09:57:58.270Z,53.06
2023-01-13T10:00:51.496Z,52.86
2023-01-13T10:03:28.853Z,52.86
2023-01-13T10:06:10.738Z,52.90
2023-01-13T10:08:44.198Z,52.52
2023-01-13T10:11:44.220Z,52.55
2023-01-13T10:14:25.522Z,52.63
2023-01-13T10:17:12.030Z,52.90
2023-01-13T10:19:45.497Z,52.42
2023-01-13T10:22:24.718Z,52.77
2023-01-13T10:25:18.318Z,52.42
2023-01-13T10:27:50.163Z,52.22
2023-01-13T10:30:40.108Z,51.78
2023-01-13T10:33:25.783Z,51.94
2023-01-13T10:36:15.041Z,52.29
2023-01-13T10:38:48.079Z,51.90
2023-01-13T10:41:26.172Z,51.92
2023-01-13T10:44:00.949Z,51.48
2023-01-13T10:46:29.234Z,50.60
2023-01-13T10:49:00.162Z,50.92
2023-01-13T10:51:43.601Z,50.17
2023-01-13T10:54:13.556Z,50.44
2023-01-13T10:56:43.754Z,50.03
2023-01-13T10:59:30.047Z,49.67
2023-01-13T11:02:25.766Z,49.60
2023-01-13T11:04:53.256Z,48.92
2023-01-13T11:07:39.730Z,49.01
2023-01-13T11:10:09.713Z,48.00
2023-01-13T11:13:09.315Z,49.07
2023-01-13T11:16:15.934Z,48.04
2023-01-13T11:19:14.025Z,48.67
2023-01-13T11:22:01.792Z,47.88
2023-01-13T11:24:58.445Z,48.26
2023-01-13T11:27:42.868Z,48.39
2023-01-13T11:30:37.042Z,47.21
2023-01-13T11:33:29.564Z,47.98
2023-01-13T11:36:20.478Z,47.08
2023-01-13T11:39:03.071Z,47.27
2023-01-13T11:41:44.768Z,46.71
2023-01-13T11:44:38.779Z,46.36
2023-01-13T11:47:05.730Z,45.85
2023-01-13T11:49:33.930Z,45.32
2023-01-13T11:52:37.402Z,45.74
2023-01-13T11:55:21.735Z,45.78
2023-01-13T11:58:14.183Z,45.31
2023-01-13T12:01:13.120Z,45.63
2023-01-13T12:03:52.956Z,45.90
2023-01-13T12:06:31.993Z,46.39
2023-01-13T12:09:48.121Z,46.75
2023-01-13T12:12:39.664Z,46.96
2023-01-13T12:15:22.280Z,46.87
2023-01-13T12:18:29.379Z,45.97
2023-01-13T12:21:02.224Z,46.47
2023-01-13T12:23:40.176Z,46.55
2023-01-13T12:26:16.058Z,46.20
2023-01-13T12:29:21.532Z,46.76
2023-01-13T12:31:50.305Z,46.39
2023-01-13T12:34:43.531Z,46.86
2023-01-13T12:37:18.800Z,46.90
2023-01-13T12:40:24.534Z,47.35
2023-01-13T12:43:42.789Z,47.66
2023-01-13T12:46:21.723Z,47.34
2023-01-13T12:48:54.809Z,48.08
2023-01-13T12:51:36.656Z,47.97
2023-01-13T12:54:40.799Z,48.28
2023-01-13T12:57:16.570Z,48.05
2023-01-13T12:59:51.100Z,48.55
2023-01-13T13:02:33.137Z,48.76
2023-01-13T13:05:27.825Z,48.95
2023-01-13T13:08:44.055Z,49.11
2023-01-13T13:11:32.437Z,49.45
2023-01-13T13:14:05.902Z,49.37
2023-01-13T13:16:45.411Z,49.59
2023-01-13T13:19:18.421Z,49.57
2023-01-13T13:22:13.696Z,50.00
2023-01-13T13:25:02.420Z,50.05
2023-01-13T13:27:41.238Z,49.91
2023-01-13T13:30:52.492Z,49.87
2023-01-13T13:33:53.919Z,49.85
2023-01-13T13:36:49.986Z,50.03
2023-01-13T13:39:47.724Z,50.57
2023-01-13T13:42:54.750Z,50.88
2023-01-13T13:45:43.835Z,50.88
2023-01-13T13:48:40.162Z,50.90
2023-01-13T13:51:22.874Z,51.26
2023-01-13T13:53:49.842Z,51.27
2023-01-13T13:56:21.529Z,51.34
2023-01-13T13:58:49.571Z,51.52
2023-01-13T14:01:32.915Z,51.44
2023-01-13T14:04:07.162Z,51.52
2023-01-13T14:06:34.429Z,51.74
2023-01-13T14:09:03.956Z,51.82
2023-01-13T14:11:33.458Z,51.50
2023-01-13T14:14:15.147Z,51.48
2023-01-13T14:16:42.831Z,51.43
2023-01-13T14:19:32.076Z,51.81
2023-01-13T14:22:02.246Z,51.72
2023-01-13T14:24:31.267Z,51.88
2023-01-13T14:27:16.435Z,51.58
2023-01-13T14:29:43.838Z,51.71
2023-01-13T14:32:17.612Z,51.67
2023-01-13T14:34:44.829Z,51.63
2023-01-13T14:37:31.433Z,51.25
2023-01-13T14:39:58.401Z,51.47
2023-01-13T14:42:27.544Z,51.36
2023-01-13T14:44:56.260Z,51.17
2023-01-13T14:47:31.519Z,51.19
2023-01-13T14:50:17.087Z,51.30
2023-01-13T14:52:57.144Z,51.20
2023-01-13T14:55:37.326Z,51.43
2023-01-13T14:58:22.529Z,51.18
2023-01-13T15:00:51.435Z,51.20
2023-01-13T15:03:21.215Z,51.09
2023-01-13T15:05:51.772Z,51.30
2023-01-13T15:08:26.359Z,51.23
2023-01-13T15:11:01.655Z,51.24
2023-01-13T15:13:46.749Z,51.45
2023-01-13T15:16:26.396Z,51.61
2023-01-13T15:18:56.840Z,51.64
2023-01-13T15:21:25.028Z,51.40
2023-01-13T15:23:52.203Z,50.98
2023-01-13T15:26:29.931Z,51.39
2023-01-13T15:28:59.207Z,51.48
2023-01-13T15:31:28.856Z,52.16
2023-01-13T15:33:56.243Z,51.99
2023-01-13T15:36:28.742Z,51.88
2023-01-13T15:38:57.290Z,52.28
2023-01-13T15:41:43.647Z,52.35
2023-01-13T15:44:34.645Z,52.38
2023-01-13T15:47:10.048Z,52.66
2023-01-13T15:49:45.559Z,52.69
2023-01-13T15:52:23.498Z,52.57
2023-01-13T15:54:51.906Z,52.72
2023-01-13T15:57:27.253Z,52.77
2023-01-13T15:59:58.418Z,53.04
2023-01-13T16:02:25.955Z,52.94
2023-01-13T16:04:54.440Z,52.97
2023-01-13T16:07:24.111Z,53.16
2023-01-13T16:09:51.659Z,53.35
2023-01-13T16:12:18.609Z,53.50
2023-01-13T16:14:45.635Z,53.71
2023-01-13T16:17:18.375Z,53.27
2023-01-13T16:19:46.438Z,53.73
2023-01-13T16:22:14.883Z,54.64
2023-01-13T16:24:42.689Z,55.40
2023-01-13T16:27:22.327Z,54.86
2023-01-13T16:29:51.499Z,55.38
2023-01-13T16:32:20.741Z,56.83
2023-01-13T16:34:48.277Z,57.36
2023-01-13T16:37:25.826Z,57.68
2023-01-13T16:39:54.032Z,58.56
2023-01-13T16:42:21.484Z,59.72
2023-01-13T16:44:49.093Z,60.76
2023-01-13T16:47:17.950Z,61.55
2023-01-13T16:49:45.430Z,61.67
2023-01-13T16:52:12.470Z,61.46
2023-01-13T16:54:39.423Z,62.62
2023-01-13T16:57:07.703Z,62.35
2023-01-13T16:59:34.642Z,61.81
2023-01-13T17:02:02.092Z,62.75
2023-01-13T17:04:29.283Z,62.65
2023-01-13T17:07:00.986Z,62.92
2023-01-13T17:09:29.379Z,62.94
2023-01-13T17:11:56.980Z,62.84
2023-01-13T17:14:25.337Z,63.60
2023-01-13T17:16:55.137Z,64.09
2023-01-13T17:19:23.068Z,62.90
2023-01-13T17:21:51.118Z,62.52
2023-01-13T17:24:18.644Z,63.31
2023-01-13T17:26:49.185Z,64.05
2023-01-13T17:29:23.166Z,63.58
2023-01-13T17:31:51.554Z,63.62
2023-01-13T17:34:19.535Z,64.26
2023-01-13T17:36:46.600Z,63.60
2023-01-13T17:39:20.331Z,63.59
2023-01-13T17:41:47.389Z,63.81
2023-01-13T17:44:15.618Z,63.55
2023-01-13T17:46:43.142Z,63.70
2023-01-13T17:49:13.028Z,63.62
2023-01-13T17:51:40.144Z,63.63
2023-01-13T17:54:12.036Z,63.65
2023-01-13T17:56:41.204Z,62.84
2023-01-13T17:59:11.294Z,62.69
2023-01-13T18:01:39.464Z,62.92
2023-01-13T18:04:07.503Z,62.21
2023-01-13T18:06:34.780Z,62.10
2023-01-13T18:09:01.956Z,62.20
2023-01-13T18:11:28.878Z,62.68
2023-01-13T18:14:00.116Z,63.15
2023-01-13T18:16:30.177Z,63.44
2023-01-13T18:19:18.828Z,63.10
2023-01-13T18:22:25.679Z,63.76
2023-01-13T18:25:10.946Z,63.75
2023-01-13T18:27:40.588Z,63.36
2023-01-13T18:30:08.756Z,64.01
2023-01-13T18:32:36.449Z,63.92
2023-01-13T18:35:10.064Z,63.35
2023-01-13T18:37:40.186Z,63.87
2023-01-13T18:40:12.174Z,63.75
2023-01-13T18:42:51.519Z,63.81
2023-01-13T18:45:24.999Z,63.96
2023-01-13T18:47:54.406Z,63.22
2023-01-13T18:50:22.285Z,63.57
2023-01-13T18:52:49.435Z,64.12
2023-01-13T18:55:16.531Z,64.25
2023-01-13T18:57:43.585Z,64.10
2023-01-13T19:00:14.401Z,64.06
2023-01-13T19:02:41.515Z,64.19
2023-01-13T19:05:10.429Z,64.02
2023-01-13T19:07:37.474Z,64.01
2023-01-13T19:10:06.203Z,63.78
2023-01-13T19:12:33.692Z,64.25
2023-01-13T19:15:02.193Z,64.45
2023-01-13T19:17:34.699Z,64.14
2023-01-13T19:20:02.240Z,64.45
2023-01-13T19:22:32.927Z,64.54
2023-01-13T19:25:01.372Z,64.10
2023-01-13T19:27:28.830Z,63.71
2023-01-13T19:29:58.642Z,63.81
2023-01-13T19:32:26.527Z,63.52
2023-01-13T19:34:54.994Z,63.95
2023-01-13T19:37:21.913Z,64.05
2023-01-13T19:39:48.874Z,63.95
2023-01-13T19:42:34.318Z,63.63
2023-01-13T19:45:19.830Z,63.83
2023-01-13T19:47:46.989Z,63.70
2023-01-13T19:50:14.641Z,63.77
2023-01-13T19:52:44.740Z,63.72
2023-01-13T19:55:12.581Z,63.40
2023-01-13T19:57:40.874Z,63.35
2023-01-13T20:00:09.340Z,63.12
2023-01-13T20:02:47.828Z,63.02
2023-01-13T20:05:26.161Z,63.09
2023-01-13T20:07:53.909Z,62.67
2023-01-13T20:10:22.570Z,62.54
2023-01-13T20:12:49.440Z,63.00
2023-01-13T20:15:16.456Z,62.78
2023-01-13T20:17:43.396Z,62.37
2023-01-13T20:20:11.842Z,62.10
2023-01-13T20:22:39.799Z,61.92
2023-01-13T20:25:07.664Z,62.32
2023-01-13T20:27:35.078Z,62.27
2023-01-13T20:30:01.987Z,62.38
2023-01-13T20:32:28.938Z,62.61
2023-01-13T20:34:55.838Z,62.35
2023-01-13T20:37:22.902Z,62.37
2023-01-13T20:39:49.783Z,62.02
2023-01-13T20:42:34.923Z,62.13
2023-01-13T20:45:01.871Z,62.00
2023-01-13T20:47:30.153Z,62.12
2023-01-13T20:49:57.213Z,62.65
2023-01-13T20:52:24.633Z,62.54
2023-01-13T20:54:51.634Z,62.78
2023-01-13T20:57:18.582Z,62.77
2023-01-13T20:59:45.571Z,63.34
2023-01-13T21:02:15.038Z,63.42
2023-01-13T21:04:42.755Z,63.29
2023-01-13T21:07:10.655Z,63.40
2023-01-13T21:09:37.968Z,62.97
2023-01-13T21:12:24.232Z,62.28
2023-01-13T21:15:09.680Z,62.36
2023-01-13T21:17:55.750Z,62.09
2023-01-13T21:20:22.787Z,61.85
2023-01-13T21:22:49.928Z,61.44
2023-01-13T21:25:18.542Z,61.13
2023-01-13T21:27:45.523Z,61.24
2023-01-13T21:30:17.770Z,60.89
2023-01-13T21:32:45.578Z,60.91
2023-01-13T21:35:14.289Z,60.87
2023-01-13T21:37:43.411Z,61.10
2023-01-13T21:40:13.795Z,61.14
2023-01-13T21:42:59.942Z,61.41
2023-01-13T21:45:45.908Z,61.50
2023-01-13T21:48:12.875Z,61.62
2023-01-13T21:50:39.821Z,61.64
2023-01-13T21:53:07.997Z,61.89
2023-01-13T21:55:36.734Z,61.80
2023-01-13T21:58:14.514Z,61.68
2023-01-13T22:00:44.356Z,61.43
2023-01-13T22:03:14.491Z,61.74
2023-01-13T22:05:41.982Z,61.46
2023-01-13T22:08:12.369Z,61.31
2023-01-13T22:10:57.019Z,61.44
2023-01-13T22:13:42.738Z,61.83
2023-01-13T22:16:09.941Z,61.63
2023-01-13T22:18:36.887Z,61.48
2023-01-13T22:21:03.930Z,61.49
2023-01-13T22:23:30.823Z,61.47
2023-01-13T22:26:02.581Z,60.92
2023-01-13T22:28:34.165Z,61.04
2023-01-13T22:31:01.532Z,61.06
2023-01-13T22:33:28.399Z,61.03
2023-01-13T22:35:55.969Z,61.01
2023-01-13T22:38:23.767Z,60.99
2023-01-13T22:41:06.227Z,60.75
2023-01-13T22:43:33.833Z,61.05
2023-01-13T22:46:12.101Z,60.89
2023-01-13T22:48:40.648Z,61.00
2023-01-13T22:51:16.868Z,60.69
2023-01-13T22:53:43.835Z,60.58
2023-01-13T22:56:18.200Z,60.76
2023-01-13T22:58:45.330Z,60.74
2023-01-13T23:01:17.420Z,60.97
2023-01-13T23:03:47.599Z,60.83
2023-01-13T23:06:15.671Z,61.04
2023-01-13T23:08:42.633Z,61.06
2023-01-13T23:11:12.985Z,61.11
2023-01-13T23:13:43.089Z,61.35
2023-01-13T23:16:14.264Z,61.43
2023-01-13T23:18:48.132Z,61.48
2023-01-13T23:21:26.245Z,61.54
2023-01-13T23:23:53.849Z,61.50
2023-01-13T23:26:21.276Z,61.23
2023-01-13T23:28:51.599Z,61.67
2023-01-13T23:31:21.679Z,61.97
2023-01-13T23:33:49.293Z,61.99
2023-01-13T23:36:23.510Z,61.89
2023-01-13T23:38:51.754Z,61.76
2023-01-13T23:41:22.531Z,61.61
2023-01-13T23:43:51.994Z,61.65
2023-01-13T23:46:20.217Z,61.71
2023-01-13T23:48:48.190Z,61.66
2023-01-13T23:51:15.608Z,61.38
2023-01-13T23:53:46.934Z,61.26
2023-01-13T23:56:17.897Z,61.28
2023-01-13T23:58:45.242Z,61.42
